Lingxian, China
Current Conditions -  °F | °C
As of 1:00 AM on Friday 24 Oct 2014 (Local Time) from ZSJN Reporting Station
Haze Haze  
Wind Chill: 63°   Ceiling: Unl
Heat Index: 63°   Visibility: 3mi
Dew Point: 52°   Wind: 4mph
Humidity: 68%   Direction: 170°S
Pressure: 29.91"   Gusts: NA
Location:  37.33°N, 116.57°E
Report Text: ZSJN 231700Z 17002MPS 110V200 5000 HZ NSC 17/11 Q1013 NOSIG
Loading
Personal Weather Stations






























Interactive Weather Map
Tropical Storm Tracking
New forecast layout! Learn more

10-Day Weather Forecast

Advertisements
Track Severe Weather on mobile